sensor_id;sensor_type;location;lat;lon;timestamp;temperature;humidity
47090;DHT22;32840;52.516;13.294;2022-12-20T00:02:17;5.40;99.90
47090;DHT22;32840;52.516;13.294;2022-12-20T00:05:01;5.40;99.90
47090;DHT22;32840;52.516;13.294;2022-12-20T00:07:46;5.40;99.90
47090;DHT22;32840;52.516;13.294;2022-12-20T00:10:39;5.40;99.90
47090;DHT22;32840;52.516;13.294;2022-12-20T00:13:24;5.40;99.90
47090;DHT22;32840;52.516;13.294;2022-12-20T00:16:14;5.40;99.90
47090;DHT22;32840;52.516;13.294;2022-12-20T00:19:02;5.40;99.90
47090;DHT22;32840;52.516;13.294;2022-12-20T00:21:46;5.40;99.90
47090;DHT22;32840;52.516;13.294;2022-12-20T00:24:32;5.40;99.90
47090;DHT22;32840;52.516;13.294;2022-12-20T00:27:16;5.40;99.90
47090;DHT22;32840;52.516;13.294;2022-12-20T00:30:02;5.40;99.90
47090;DHT22;32840;52.516;13.294;2022-12-20T00:32:47;5.40;99.90
47090;DHT22;32840;52.516;13.294;2022-12-20T00:35:32;5.40;99.90
47090;DHT22;32840;52.516;13.294;2022-12-20T00:38:17;5.40;99.90
47090;DHT22;32840;52.516;13.294;2022-12-20T00:41:07;5.40;99.90
47090;DHT22;32840;52.516;13.294;2022-12-20T00:43:53;5.50;99.90
47090;DHT22;32840;52.516;13.294;2022-12-20T00:46:38;5.40;99.90
47090;DHT22;32840;52.516;13.294;2022-12-20T00:49:22;5.50;99.90
47090;DHT22;32840;52.516;13.294;2022-12-20T00:52:07;5.40;99.90
47090;DHT22;32840;52.516;13.294;2022-12-20T00:54:52;5.50;99.90
47090;DHT22;32840;52.516;13.294;2022-12-20T00:57:36;5.50;99.90
47090;DHT22;32840;52.516;13.294;2022-12-20T01:00:22;5.50;99.90
47090;DHT22;32840;52.516;13.294;2022-12-20T01:03:07;5.50;99.90
47090;DHT22;32840;52.516;13.294;2022-12-20T01:05:54;5.50;99.90
47090;DHT22;32840;52.516;13.294;2022-12-20T01:08:39;5.50;99.90
47090;DHT22;32840;52.516;13.294;2022-12-20T01:11:30;5.50;99.90
47090;DHT22;32840;52.516;13.294;2022-12-20T01:14:15;5.50;99.90
47090;DHT22;32840;52.516;13.294;2022-12-20T01:17:00;5.50;99.90
47090;DHT22;32840;52.516;13.294;2022-12-20T01:19:45;5.50;99.90
47090;DHT22;32840;52.516;13.294;2022-12-20T01:22:30;5.50;99.90
47090;DHT22;32840;52.516;13.294;2022-12-20T01:25:15;5.50;99.90
47090;DHT22;32840;52.516;13.294;2022-12-20T01:28:00;5.50;99.90
47090;DHT22;32840;52.516;13.294;2022-12-20T01:30:44;5.60;99.90
47090;DHT22;32840;52.516;13.294;2022-12-20T01:33:29;5.50;99.90
47090;DHT22;32840;52.516;13.294;2022-12-20T01:36:20;5.60;99.90
47090;DHT22;32840;52.516;13.294;2022-12-20T01:39:10;5.60;99.90
47090;DHT22;32840;52.516;13.294;2022-12-20T01:41:54;5.70;99.90
47090;DHT22;32840;52.516;13.294;2022-12-20T01:47:31;5.70;99.90
47090;DHT22;32840;52.516;13.294;2022-12-20T01:50:17;5.70;99.90
47090;DHT22;32840;52.516;13.294;2022-12-20T01:53:03;5.70;99.90
47090;DHT22;32840;52.516;13.294;2022-12-20T01:55:49;5.70;99.90
47090;DHT22;32840;52.516;13.294;2022-12-20T01:58:35;5.60;99.90
47090;DHT22;32840;52.516;13.294;2022-12-20T02:01:24;5.60;99.90
47090;DHT22;32840;52.516;13.294;2022-12-20T02:04:09;5.60;99.90
47090;DHT22;32840;52.516;13.294;2022-12-20T02:06:54;5.60;99.90
47090;DHT22;32840;52.516;13.294;2022-12-20T02:09:41;5.60;99.90
47090;DHT22;32840;52.516;13.294;2022-12-20T02:12:41;5.50;99.90
47090;DHT22;32840;52.516;13.294;2022-12-20T02:15:48;5.50;99.90
47090;DHT22;32840;52.516;13.294;2022-12-20T02:18:44;5.50;99.90
47090;DHT22;32840;52.516;13.294;2022-12-20T02:21:42;5.50;99.90
47090;DHT22;32840;52.516;13.294;2022-12-20T02:30:53;5.70;99.90
47090;DHT22;32840;52.516;13.294;2022-12-20T02:33:46;5.60;99.90
47090;DHT22;32840;52.516;13.294;2022-12-20T02:36:31;5.70;99.90
47090;DHT22;32840;52.516;13.294;2022-12-20T02:39:16;5.70;99.90
47090;DHT22;32840;52.516;13.294;2022-12-20T02:42:10;5.60;99.90
47090;DHT22;32840;52.516;13.294;2022-12-20T02:44:59;5.70;99.90
47090;DHT22;32840;52.516;13.294;2022-12-20T02:48:04;5.70;99.90
47090;DHT22;32840;52.516;13.294;2022-12-20T02:50:51;5.70;99.90
47090;DHT22;32840;52.516;13.294;2022-12-20T02:53:38;5.80;99.90
47090;DHT22;32840;52.516;13.294;2022-12-20T02:56:57;5.80;99.90
47090;DHT22;32840;52.516;13.294;2022-12-20T03:00:02;5.90;99.90
47090;DHT22;32840;52.516;13.294;2022-12-20T03:02:49;5.90;99.90
47090;DHT22;32840;52.516;13.294;2022-12-20T03:05:54;5.90;99.90
47090;DHT22;32840;52.516;13.294;2022-12-20T03:08:41;5.90;99.90
47090;DHT22;32840;52.516;13.294;2022-12-20T03:11:26;5.90;99.90
47090;DHT22;32840;52.516;13.294;2022-12-20T03:14:11;5.90;99.90
47090;DHT22;32840;52.516;13.294;2022-12-20T03:16:56;5.90;99.90
47090;DHT22;32840;52.516;13.294;2022-12-20T03:19:41;5.90;99.90
47090;DHT22;32840;52.516;13.294;2022-12-20T03:22:25;5.90;99.90
47090;DHT22;32840;52.516;13.294;2022-12-20T03:25:11;5.90;99.90
47090;DHT22;32840;52.516;13.294;2022-12-20T03:27:56;5.90;99.90
47090;DHT22;32840;52.516;13.294;2022-12-20T03:30:40;6.00;99.90
47090;DHT22;32840;52.516;13.294;2022-12-20T03:33:27;6.00;99.90
47090;DHT22;32840;52.516;13.294;2022-12-20T03:36:12;6.10;99.90
47090;DHT22;32840;52.516;13.294;2022-12-20T03:38:57;6.10;99.90
47090;DHT22;32840;52.516;13.294;2022-12-20T03:41:42;6.20;99.90
47090;DHT22;32840;52.516;13.294;2022-12-20T03:44:27;6.20;99.90
47090;DHT22;32840;52.516;13.294;2022-12-20T03:47:12;6.20;99.90
47090;DHT22;32840;52.516;13.294;2022-12-20T03:49:57;6.20;99.90
47090;DHT22;32840;52.516;13.294;2022-12-20T03:52:42;6.20;99.90
47090;DHT22;32840;52.516;13.294;2022-12-20T03:55:27;6.20;99.90
47090;DHT22;32840;52.516;13.294;2022-12-20T03:58:12;6.20;99.90
47090;DHT22;32840;52.516;13.294;2022-12-20T04:00:57;6.20;99.90
47090;DHT22;32840;52.516;13.294;2022-12-20T04:03:42;6.20;99.90
47090;DHT22;32840;52.516;13.294;2022-12-20T04:06:26;6.10;99.90
47090;DHT22;32840;52.516;13.294;2022-12-20T04:09:12;6.10;99.90
47090;DHT22;32840;52.516;13.294;2022-12-20T04:11:57;6.10;99.90
47090;DHT22;32840;52.516;13.294;2022-12-20T04:14:42;6.00;99.90
47090;DHT22;32840;52.516;13.294;2022-12-20T04:17:26;6.00;99.90
47090;DHT22;32840;52.516;13.294;2022-12-20T04:20:16;6.00;99.90
47090;DHT22;32840;52.516;13.294;2022-12-20T04:23:03;6.00;99.90
47090;DHT22;32840;52.516;13.294;2022-12-20T04:25:48;6.00;99.90
47090;DHT22;32840;52.516;13.294;2022-12-20T04:28:34;6.00;99.90
47090;DHT22;32840;52.516;13.294;2022-12-20T04:31:19;5.90;99.90
47090;DHT22;32840;52.516;13.294;2022-12-20T04:34:04;6.00;99.90
47090;DHT22;32840;52.516;13.294;2022-12-20T04:36:48;6.00;99.90
47090;DHT22;32840;52.516;13.294;2022-12-20T04:39:33;5.90;99.90
47090;DHT22;32840;52.516;13.294;2022-12-20T04:42:18;5.90;99.90
47090;DHT22;32840;52.516;13.294;2022-12-20T04:45:04;5.90;99.90
47090;DHT22;32840;52.516;13.294;2022-12-20T04:47:49;5.90;99.90
47090;DHT22;32840;52.516;13.294;2022-12-20T04:50:34;5.90;99.90
47090;DHT22;32840;52.516;13.294;2022-12-20T04:53:19;5.80;99.90
47090;DHT22;32840;52.516;13.294;2022-12-20T04:56:26;5.80;99.90
47090;DHT22;32840;52.516;13.294;2022-12-20T04:59:13;5.80;99.90
47090;DHT22;32840;52.516;13.294;2022-12-20T05:01:58;5.80;99.90
47090;DHT22;32840;52.516;13.294;2022-12-20T05:04:43;5.70;99.90
47090;DHT22;32840;52.516;13.294;2022-12-20T05:07:28;5.70;99.90
47090;DHT22;32840;52.516;13.294;2022-12-20T05:10:14;5.80;99.90
47090;DHT22;32840;52.516;13.294;2022-12-20T05:12:58;5.80;99.90
47090;DHT22;32840;52.516;13.294;2022-12-20T05:15:43;5.90;99.90
47090;DHT22;32840;52.516;13.294;2022-12-20T05:18:28;5.90;99.90
47090;DHT22;32840;52.516;13.294;2022-12-20T05:21:13;6.00;99.90
47090;DHT22;32840;52.516;13.294;2022-12-20T05:24:17;6.00;99.90
47090;DHT22;32840;52.516;13.294;2022-12-20T05:27:20;5.90;99.90
47090;DHT22;32840;52.516;13.294;2022-12-20T05:30:05;6.00;99.90
47090;DHT22;32840;52.516;13.294;2022-12-20T05:32:51;6.00;99.90
47090;DHT22;32840;52.516;13.294;2022-12-20T05:35:35;6.00;99.90
47090;DHT22;32840;52.516;13.294;2022-12-20T05:38:23;6.00;99.90
47090;DHT22;32840;52.516;13.294;2022-12-20T05:41:08;6.00;99.90
47090;DHT22;32840;52.516;13.294;2022-12-20T05:43:53;6.10;99.90
47090;DHT22;32840;52.516;13.294;2022-12-20T05:46:38;6.10;99.90
47090;DHT22;32840;52.516;13.294;2022-12-20T05:49:23;6.10;99.90
47090;DHT22;32840;52.516;13.294;2022-12-20T05:52:07;6.10;99.90
47090;DHT22;32840;52.516;13.294;2022-12-20T05:54:52;6.10;99.90
47090;DHT22;32840;52.516;13.294;2022-12-20T05:57:37;6.20;99.90
47090;DHT22;32840;52.516;13.294;2022-12-20T06:00:22;6.20;99.90
47090;DHT22;32840;52.516;13.294;2022-12-20T06:03:08;6.20;99.90
47090;DHT22;32840;52.516;13.294;2022-12-20T06:05:53;6.20;99.90
47090;DHT22;32840;52.516;13.294;2022-12-20T06:08:39;6.30;99.90
47090;DHT22;32840;52.516;13.294;2022-12-20T06:11:24;6.30;99.90
47090;DHT22;32840;52.516;13.294;2022-12-20T06:14:09;6.30;99.90
47090;DHT22;32840;52.516;13.294;2022-12-20T06:16:54;6.30;99.90
47090;DHT22;32840;52.516;13.294;2022-12-20T06:19:39;6.30;99.90
47090;DHT22;32840;52.516;13.294;2022-12-20T06:22:25;6.40;99.90
47090;DHT22;32840;52.516;13.294;2022-12-20T06:25:10;6.40;99.90
47090;DHT22;32840;52.516;13.294;2022-12-20T06:27:56;6.40;99.90
47090;DHT22;32840;52.516;13.294;2022-12-20T06:30:40;6.40;99.90
47090;DHT22;32840;52.516;13.294;2022-12-20T06:33:25;6.50;99.90
47090;DHT22;32840;52.516;13.294;2022-12-20T06:36:10;6.50;99.90
47090;DHT22;32840;52.516;13.294;2022-12-20T06:38:55;6.50;99.90
47090;DHT22;32840;52.516;13.294;2022-12-20T06:41:40;6.50;99.90
47090;DHT22;32840;52.516;13.294;2022-12-20T06:44:25;6.50;99.90
47090;DHT22;32840;52.516;13.294;2022-12-20T06:47:11;6.50;99.90
47090;DHT22;32840;52.516;13.294;2022-12-20T06:49:56;6.50;99.90
47090;DHT22;32840;52.516;13.294;2022-12-20T06:52:41;6.50;99.90
47090;DHT22;32840;52.516;13.294;2022-12-20T06:55:25;6.60;99.90
47090;DHT22;32840;52.516;13.294;2022-12-20T06:58:10;6.60;99.90
47090;DHT22;32840;52.516;13.294;2022-12-20T07:00:55;6.70;99.90
47090;DHT22;32840;52.516;13.294;2022-12-20T07:03:40;6.60;99.90
47090;DHT22;32840;52.516;13.294;2022-12-20T07:06:25;6.60;99.90
47090;DHT22;32840;52.516;13.294;2022-12-20T07:09:12;6.60;99.90
47090;DHT22;32840;52.516;13.294;2022-12-20T07:11:57;6.60;99.90
47090;DHT22;32840;52.516;13.294;2022-12-20T07:14:42;6.60;99.90
47090;DHT22;32840;52.516;13.294;2022-12-20T07:17:27;6.70;99.90
47090;DHT22;32840;52.516;13.294;2022-12-20T07:20:12;6.70;99.90
47090;DHT22;32840;52.516;13.294;2022-12-20T07:22:57;6.70;99.90
47090;DHT22;32840;52.516;13.294;2022-12-20T07:25:42;6.70;99.90
47090;DHT22;32840;52.516;13.294;2022-12-20T07:28:27;6.70;99.90
47090;DHT22;32840;52.516;13.294;2022-12-20T07:31:12;6.70;99.90
47090;DHT22;32840;52.516;13.294;2022-12-20T07:33:57;6.80;99.90
47090;DHT22;32840;52.516;13.294;2022-12-20T07:36:43;6.80;99.90
47090;DHT22;32840;52.516;13.294;2022-12-20T07:39:27;6.80;99.90
47090;DHT22;32840;52.516;13.294;2022-12-20T07:42:12;6.80;99.90
47090;DHT22;32840;52.516;13.294;2022-12-20T07:44:57;6.80;99.90
47090;DHT22;32840;52.516;13.294;2022-12-20T07:47:42;6.80;99.90
47090;DHT22;32840;52.516;13.294;2022-12-20T07:50:32;6.90;99.90
47090;DHT22;32840;52.516;13.294;2022-12-20T07:53:18;6.90;99.90
47090;DHT22;32840;52.516;13.294;2022-12-20T07:56:07;6.90;99.90
47090;DHT22;32840;52.516;13.294;2022-12-20T07:58:54;6.90;99.90
47090;DHT22;32840;52.516;13.294;2022-12-20T08:01:44;6.90;99.90
47090;DHT22;32840;52.516;13.294;2022-12-20T08:04:31;6.90;99.90
47090;DHT22;32840;52.516;13.294;2022-12-20T08:07:18;6.90;99.90
47090;DHT22;32840;52.516;13.294;2022-12-20T08:10:04;6.90;99.90
47090;DHT22;32840;52.516;13.294;2022-12-20T08:12:50;7.00;99.90
47090;DHT22;32840;52.516;13.294;2022-12-20T08:15:35;7.00;99.90
47090;DHT22;32840;52.516;13.294;2022-12-20T08:18:21;7.00;99.90
47090;DHT22;32840;52.516;13.294;2022-12-20T08:21:06;7.00;99.90
47090;DHT22;32840;52.516;13.294;2022-12-20T08:23:52;7.00;99.90
47090;DHT22;32840;52.516;13.294;2022-12-20T08:26:41;7.00;99.90
47090;DHT22;32840;52.516;13.294;2022-12-20T08:29:27;7.00;99.90
47090;DHT22;32840;52.516;13.294;2022-12-20T08:32:12;7.00;99.90
47090;DHT22;32840;52.516;13.294;2022-12-20T08:34:57;7.00;99.90
47090;DHT22;32840;52.516;13.294;2022-12-20T08:37:42;7.00;99.90
47090;DHT22;32840;52.516;13.294;2022-12-20T08:40:27;7.10;99.90
47090;DHT22;32840;52.516;13.294;2022-12-20T08:43:12;7.10;99.90
47090;DHT22;32840;52.516;13.294;2022-12-20T08:45:58;7.10;99.90
47090;DHT22;32840;52.516;13.294;2022-12-20T08:48:44;7.10;99.90
47090;DHT22;32840;52.516;13.294;2022-12-20T08:51:29;7.10;99.90
47090;DHT22;32840;52.516;13.294;2022-12-20T08:54:13;7.20;99.90
47090;DHT22;32840;52.516;13.294;2022-12-20T08:56:58;7.20;99.90
47090;DHT22;32840;52.516;13.294;2022-12-20T08:59:43;7.20;99.90
47090;DHT22;32840;52.516;13.294;2022-12-20T09:02:28;7.20;99.90
47090;DHT22;32840;52.516;13.294;2022-12-20T09:05:13;7.20;99.90
47090;DHT22;32840;52.516;13.294;2022-12-20T09:07:58;7.20;99.90
47090;DHT22;32840;52.516;13.294;2022-12-20T09:10:42;7.20;99.90
47090;DHT22;32840;52.516;13.294;2022-12-20T09:13:27;7.30;99.90
47090;DHT22;32840;52.516;13.294;2022-12-20T09:16:14;7.30;99.90
47090;DHT22;32840;52.516;13.294;2022-12-20T09:19:01;7.30;99.90
47090;DHT22;32840;52.516;13.294;2022-12-20T09:21:45;7.30;99.90
47090;DHT22;32840;52.516;13.294;2022-12-20T09:24:30;7.40;99.90
47090;DHT22;32840;52.516;13.294;2022-12-20T09:27:15;7.40;99.90
47090;DHT22;32840;52.516;13.294;2022-12-20T09:30:00;7.40;99.90
47090;DHT22;32840;52.516;13.294;2022-12-20T09:32:45;7.50;99.90
47090;DHT22;32840;52.516;13.294;2022-12-20T09:35:30;7.50;99.90
47090;DHT22;32840;52.516;13.294;2022-12-20T09:38:17;7.70;99.90
47090;DHT22;32840;52.516;13.294;2022-12-20T09:41:03;7.80;99.90
47090;DHT22;32840;52.516;13.294;2022-12-20T09:43:49;7.80;99.90
47090;DHT22;32840;52.516;13.294;2022-12-20T09:46:35;8.00;99.90
47090;DHT22;32840;52.516;13.294;2022-12-20T09:49:24;8.00;99.90
47090;DHT22;32840;52.516;13.294;2022-12-20T09:58:35;8.10;99.90
47090;DHT22;32840;52.516;13.294;2022-12-20T10:01:24;8.10;99.90
47090;DHT22;32840;52.516;13.294;2022-12-20T10:04:24;8.10;99.90
47090;DHT22;32840;52.516;13.294;2022-12-20T10:07:37;8.10;99.90
47090;DHT22;32840;52.516;13.294;2022-12-20T10:13:35;8.10;99.90
47090;DHT22;32840;52.516;13.294;2022-12-20T10:16:32;8.10;99.90
47090;DHT22;32840;52.516;13.294;2022-12-20T10:22:24;8.30;99.90
47090;DHT22;32840;52.516;13.294;2022-12-20T10:25:30;8.30;99.90
47090;DHT22;32840;52.516;13.294;2022-12-20T10:28:16;8.30;99.90
47090;DHT22;32840;52.516;13.294;2022-12-20T10:31:11;8.30;99.90
47090;DHT22;32840;52.516;13.294;2022-12-20T10:33:58;8.30;99.90
47090;DHT22;32840;52.516;13.294;2022-12-20T10:36:42;8.30;99.90
47090;DHT22;32840;52.516;13.294;2022-12-20T10:39:41;8.30;99.90
47090;DHT22;32840;52.516;13.294;2022-12-20T10:42:38;8.40;99.90
47090;DHT22;32840;52.516;13.294;2022-12-20T10:45:43;8.40;99.90
47090;DHT22;32840;52.516;13.294;2022-12-20T10:51:18;8.40;99.90
47090;DHT22;32840;52.516;13.294;2022-12-20T10:54:21;8.50;99.90
47090;DHT22;32840;52.516;13.294;2022-12-20T10:57:24;8.50;99.90
47090;DHT22;32840;52.516;13.294;2022-12-20T11:00:28;8.60;99.90
47090;DHT22;32840;52.516;13.294;2022-12-20T11:03:21;8.60;99.90
47090;DHT22;32840;52.516;13.294;2022-12-20T11:06:14;8.70;99.90
47090;DHT22;32840;52.516;13.294;2022-12-20T11:09:22;8.80;99.90
47090;DHT22;32840;52.516;13.294;2022-12-20T11:12:13;8.80;99.90
47090;DHT22;32840;52.516;13.294;2022-12-20T11:15:15;8.80;99.90
47090;DHT22;32840;52.516;13.294;2022-12-20T11:18:14;8.80;99.90
47090;DHT22;32840;52.516;13.294;2022-12-20T11:36:28;8.90;99.90
47090;DHT22;32840;52.516;13.294;2022-12-20T11:52:16;9.10;99.90
47090;DHT22;32840;52.516;13.294;2022-12-20T11:55:19;9.10;99.90
47090;DHT22;32840;52.516;13.294;2022-12-20T12:01:06;9.20;99.90
47090;DHT22;32840;52.516;13.294;2022-12-20T12:04:01;9.20;99.90
47090;DHT22;32840;52.516;13.294;2022-12-20T12:06:55;9.30;99.90
47090;DHT22;32840;52.516;13.294;2022-12-20T12:10:06;9.30;99.90
47090;DHT22;32840;52.516;13.294;2022-12-20T12:13:05;9.30;99.90
47090;DHT22;32840;52.516;13.294;2022-12-20T12:16:18;9.30;99.90
47090;DHT22;32840;52.516;13.294;2022-12-20T12:19:26;9.30;99.90
47090;DHT22;32840;52.516;13.294;2022-12-20T12:22:17;9.40;99.90
47090;DHT22;32840;52.516;13.294;2022-12-20T12:25:13;9.40;99.90
47090;DHT22;32840;52.516;13.294;2022-12-20T12:28:00;9.40;99.90
47090;DHT22;32840;52.516;13.294;2022-12-20T12:30:51;9.40;99.90
47090;DHT22;32840;52.516;13.294;2022-12-20T12:33:42;9.30;99.90
47090;DHT22;32840;52.516;13.294;2022-12-20T12:40:29;9.30;99.90
47090;DHT22;32840;52.516;13.294;2022-12-20T12:46:27;9.30;99.90
47090;DHT22;32840;52.516;13.294;2022-12-20T12:49:18;9.40;99.90
47090;DHT22;32840;52.516;13.294;2022-12-20T12:52:04;9.40;99.90
47090;DHT22;32840;52.516;13.294;2022-12-20T12:54:50;9.40;99.90
47090;DHT22;32840;52.516;13.294;2022-12-20T12:57:54;9.40;99.90
47090;DHT22;32840;52.516;13.294;2022-12-20T13:03:42;9.40;99.90
47090;DHT22;32840;52.516;13.294;2022-12-20T13:21:34;9.30;99.90
47090;DHT22;32840;52.516;13.294;2022-12-20T13:27:41;9.20;99.90
47090;DHT22;32840;52.516;13.294;2022-12-20T13:30:26;9.20;99.90
47090;DHT22;32840;52.516;13.294;2022-12-20T13:33:20;9.20;99.90
47090;DHT22;32840;52.516;13.294;2022-12-20T13:39:28;9.20;99.90
47090;DHT22;32840;52.516;13.294;2022-12-20T13:42:31;9.20;99.90
47090;DHT22;32840;52.516;13.294;2022-12-20T13:45:18;9.20;99.90
47090;DHT22;32840;52.516;13.294;2022-12-20T13:48:05;9.30;99.90
47090;DHT22;32840;52.516;13.294;2022-12-20T13:50:55;9.20;99.90
47090;DHT22;32840;52.516;13.294;2022-12-20T13:54:06;9.20;99.90
47090;DHT22;32840;52.516;13.294;2022-12-20T13:56:51;9.20;99.90
47090;DHT22;32840;52.516;13.294;2022-12-20T13:59:37;9.20;99.90
47090;DHT22;32840;52.516;13.294;2022-12-20T14:02:28;9.20;99.90
47090;DHT22;32840;52.516;13.294;2022-12-20T14:05:30;9.20;99.90
47090;DHT22;32840;52.516;13.294;2022-12-20T14:08:19;9.10;99.90
47090;DHT22;32840;52.516;13.294;2022-12-20T14:11:13;9.10;99.90
47090;DHT22;32840;52.516;13.294;2022-12-20T14:14:00;9.10;99.90
47090;DHT22;32840;52.516;13.294;2022-12-20T14:16:45;9.10;99.90
47090;DHT22;32840;52.516;13.294;2022-12-20T14:19:32;9.10;99.90
47090;DHT22;32840;52.516;13.294;2022-12-20T14:22:18;9.00;99.90
47090;DHT22;32840;52.516;13.294;2022-12-20T14:25:04;9.00;99.90
47090;DHT22;32840;52.516;13.294;2022-12-20T14:27:50;9.00;99.90
47090;DHT22;32840;52.516;13.294;2022-12-20T14:30:41;9.00;99.90
47090;DHT22;32840;52.516;13.294;2022-12-20T14:36:20;9.00;99.90
47090;DHT22;32840;52.516;13.294;2022-12-20T14:39:28;9.00;99.90
47090;DHT22;32840;52.516;13.294;2022-12-20T14:42:18;9.00;99.90
47090;DHT22;32840;52.516;13.294;2022-12-20T14:45:25;9.00;99.90
47090;DHT22;32840;52.516;13.294;2022-12-20T14:48:15;9.00;99.90
47090;DHT22;32840;52.516;13.294;2022-12-20T14:51:03;9.00;99.90
47090;DHT22;32840;52.516;13.294;2022-12-20T14:53:54;8.90;99.90
47090;DHT22;32840;52.516;13.294;2022-12-20T14:56:45;8.90;99.90
47090;DHT22;32840;52.516;13.294;2022-12-20T14:59:30;8.90;99.90
47090;DHT22;32840;52.516;13.294;2022-12-20T15:02:48;8.90;99.90
47090;DHT22;32840;52.516;13.294;2022-12-20T15:06:06;8.90;99.90
47090;DHT22;32840;52.516;13.294;2022-12-20T15:09:10;8.90;99.90
47090;DHT22;32840;52.516;13.294;2022-12-20T15:11:56;8.90;99.90
47090;DHT22;32840;52.516;13.294;2022-12-20T15:14:43;8.90;99.90
47090;DHT22;32840;52.516;13.294;2022-12-20T15:17:29;8.90;99.90
47090;DHT22;32840;52.516;13.294;2022-12-20T15:20:17;8.90;99.90
47090;DHT22;32840;52.516;13.294;2022-12-20T15:23:04;8.80;99.90
47090;DHT22;32840;52.516;13.294;2022-12-20T15:25:48;8.80;99.90
47090;DHT22;32840;52.516;13.294;2022-12-20T15:28:33;8.80;99.90
47090;DHT22;32840;52.516;13.294;2022-12-20T15:31:20;8.80;99.90
47090;DHT22;32840;52.516;13.294;2022-12-20T15:34:29;8.80;99.90
47090;DHT22;32840;52.516;13.294;2022-12-20T15:37:17;8.70;99.90
47090;DHT22;32840;52.516;13.294;2022-12-20T15:40:02;8.70;99.90
47090;DHT22;32840;52.516;13.294;2022-12-20T15:42:46;8.70;99.90
47090;DHT22;32840;52.516;13.294;2022-12-20T15:45:31;8.70;99.90
47090;DHT22;32840;52.516;13.294;2022-12-20T15:48:21;8.70;99.90
47090;DHT22;32840;52.516;13.294;2022-12-20T15:51:16;8.70;99.90
47090;DHT22;32840;52.516;13.294;2022-12-20T15:54:05;8.70;99.90
47090;DHT22;32840;52.516;13.294;2022-12-20T15:56:50;8.60;99.90
47090;DHT22;32840;52.516;13.294;2022-12-20T15:59:35;8.70;99.90
47090;DHT22;32840;52.516;13.294;2022-12-20T16:02:25;8.60;99.90
47090;DHT22;32840;52.516;13.294;2022-12-20T16:05:11;8.60;99.90
47090;DHT22;32840;52.516;13.294;2022-12-20T16:07:57;8.50;99.90
47090;DHT22;32840;52.516;13.294;2022-12-20T16:10:42;8.50;99.90
47090;DHT22;32840;52.516;13.294;2022-12-20T16:13:28;8.50;99.90
47090;DHT22;32840;52.516;13.294;2022-12-20T16:16:16;8.50;99.90
47090;DHT22;32840;52.516;13.294;2022-12-20T16:19:02;8.40;99.90
47090;DHT22;32840;52.516;13.294;2022-12-20T16:21:50;8.50;99.90
47090;DHT22;32840;52.516;13.294;2022-12-20T16:24:36;8.40;99.90
47090;DHT22;32840;52.516;13.294;2022-12-20T16:27:22;8.40;99.90
47090;DHT22;32840;52.516;13.294;2022-12-20T16:30:07;8.30;99.90
47090;DHT22;32840;52.516;13.294;2022-12-20T16:32:53;8.30;99.90
47090;DHT22;32840;52.516;13.294;2022-12-20T16:35:37;8.30;99.90
47090;DHT22;32840;52.516;13.294;2022-12-20T16:38:22;8.30;99.90
47090;DHT22;32840;52.516;13.294;2022-12-20T16:41:15;8.30;99.90
47090;DHT22;32840;52.516;13.294;2022-12-20T16:44:01;8.20;99.90
47090;DHT22;32840;52.516;13.294;2022-12-20T16:46:46;8.20;99.90
47090;DHT22;32840;52.516;13.294;2022-12-20T16:49:31;8.20;99.90
47090;DHT22;32840;52.516;13.294;2022-12-20T16:52:19;8.20;99.90
47090;DHT22;32840;52.516;13.294;2022-12-20T16:55:04;8.20;99.90
47090;DHT22;32840;52.516;13.294;2022-12-20T16:57:49;8.20;99.90
47090;DHT22;32840;52.516;13.294;2022-12-20T17:00:34;8.20;99.90
47090;DHT22;32840;52.516;13.294;2022-12-20T17:03:22;8.10;99.90
47090;DHT22;32840;52.516;13.294;2022-12-20T17:06:09;8.10;99.90
47090;DHT22;32840;52.516;13.294;2022-12-20T17:08:54;8.10;99.90
47090;DHT22;32840;52.516;13.294;2022-12-20T17:11:39;8.10;99.90
47090;DHT22;32840;52.516;13.294;2022-12-20T17:14:24;8.10;99.90
47090;DHT22;32840;52.516;13.294;2022-12-20T17:17:09;8.10;99.90
47090;DHT22;32840;52.516;13.294;2022-12-20T17:19:55;8.10;99.90
47090;DHT22;32840;52.516;13.294;2022-12-20T17:22:40;8.20;99.90
47090;DHT22;32840;52.516;13.294;2022-12-20T17:25:28;8.10;99.90
47090;DHT22;32840;52.516;13.294;2022-12-20T17:28:14;8.10;99.90
47090;DHT22;32840;52.516;13.294;2022-12-20T17:30:59;8.10;99.90
47090;DHT22;32840;52.516;13.294;2022-12-20T17:33:44;8.20;99.90
47090;DHT22;32840;52.516;13.294;2022-12-20T17:36:30;8.20;99.90
47090;DHT22;32840;52.516;13.294;2022-12-20T17:39:15;8.20;99.90
47090;DHT22;32840;52.516;13.294;2022-12-20T17:42:00;8.30;99.90
47090;DHT22;32840;52.516;13.294;2022-12-20T17:44:45;8.20;99.90
47090;DHT22;32840;52.516;13.294;2022-12-20T17:47:30;8.30;99.90
47090;DHT22;32840;52.516;13.294;2022-12-20T17:50:15;8.30;99.90
47090;DHT22;32840;52.516;13.294;2022-12-20T17:53:01;8.30;99.90
47090;DHT22;32840;52.516;13.294;2022-12-20T17:55:46;8.40;99.90
47090;DHT22;32840;52.516;13.294;2022-12-20T17:58:31;8.40;99.90
47090;DHT22;32840;52.516;13.294;2022-12-20T18:01:25;8.30;99.90
47090;DHT22;32840;52.516;13.294;2022-12-20T18:04:13;8.40;99.90
47090;DHT22;32840;52.516;13.294;2022-12-20T18:06:58;8.40;99.90
47090;DHT22;32840;52.516;13.294;2022-12-20T18:09:47;8.40;99.90
47090;DHT22;32840;52.516;13.294;2022-12-20T18:12:32;8.40;99.90
47090;DHT22;32840;52.516;13.294;2022-12-20T18:15:17;8.40;99.90
47090;DHT22;32840;52.516;13.294;2022-12-20T18:18:03;8.50;99.90
47090;DHT22;32840;52.516;13.294;2022-12-20T18:20:48;8.50;99.90
47090;DHT22;32840;52.516;13.294;2022-12-20T18:23:35;8.50;99.90
47090;DHT22;32840;52.516;13.294;2022-12-20T18:26:23;8.50;99.90
47090;DHT22;32840;52.516;13.294;2022-12-20T18:29:09;8.50;99.90
47090;DHT22;32840;52.516;13.294;2022-12-20T18:31:54;8.50;99.90
47090;DHT22;32840;52.516;13.294;2022-12-20T18:34:39;8.50;99.90
47090;DHT22;32840;52.516;13.294;2022-12-20T18:37:23;8.50;99.90
47090;DHT22;32840;52.516;13.294;2022-12-20T18:40:10;8.50;99.90
47090;DHT22;32840;52.516;13.294;2022-12-20T18:42:55;8.50;99.90
47090;DHT22;32840;52.516;13.294;2022-12-20T18:45:40;8.50;99.90
47090;DHT22;32840;52.516;13.294;2022-12-20T18:48:25;8.50;99.90
47090;DHT22;32840;52.516;13.294;2022-12-20T18:51:23;8.50;99.90
47090;DHT22;32840;52.516;13.294;2022-12-20T18:54:09;8.50;99.90
47090;DHT22;32840;52.516;13.294;2022-12-20T18:56:55;8.50;99.90
47090;DHT22;32840;52.516;13.294;2022-12-20T18:59:40;8.50;99.90
47090;DHT22;32840;52.516;13.294;2022-12-20T19:02:25;8.50;99.90
47090;DHT22;32840;52.516;13.294;2022-12-20T19:05:11;8.50;99.90
47090;DHT22;32840;52.516;13.294;2022-12-20T19:07:56;8.50;99.90
47090;DHT22;32840;52.516;13.294;2022-12-20T19:10:42;8.50;99.90
47090;DHT22;32840;52.516;13.294;2022-12-20T19:13:27;8.50;99.90